sensor_id;sensor_type;location;lat;lon;timestamp;pressure;altitude;pressure_sealevel;temperature;humidity
80198;BME280;69517;52.030;7.106;2024-03-08T00:01:40;101050.97;;;21.18;69.67
80198;BME280;69517;52.030;7.106;2024-03-08T00:04:07;101057.06;;;21.18;69.96
80198;BME280;69517;52.030;7.106;2024-03-08T00:06:34;101053.72;;;21.16;69.81
80198;BME280;69517;52.030;7.106;2024-03-08T00:09:01;101052.00;;;21.15;69.86
80198;BME280;69517;52.030;7.106;2024-03-08T00:11:27;101043.53;;;21.10;70.03
80198;BME280;69517;52.030;7.106;2024-03-08T00:13:53;101038.47;;;21.07;70.34
80198;BME280;69517;52.030;7.106;2024-03-08T00:16:20;101037.44;;;21.10;70.01
80198;BME280;69517;52.030;7.106;2024-03-08T00:18:48;101039.94;;;21.11;69.91
80198;BME280;69517;52.030;7.106;2024-03-08T00:21:14;101038.47;;;21.07;70.19
80198;BME280;69517;52.030;7.106;2024-03-08T00:23:42;101038.47;;;21.07;70.34
80198;BME280;69517;52.030;7.106;2024-03-08T00:26:08;101035.94;;;21.05;70.01
80198;BME280;69517;52.030;7.106;2024-03-08T00:28:35;101036.03;;;21.04;70.18
80198;BME280;69517;52.030;7.106;2024-03-08T00:31:01;101033.41;;;21.04;70.17
80198;BME280;69517;52.030;7.106;2024-03-08T00:33:27;101027.31;;;21.03;70.18
80198;BME280;69517;52.030;7.106;2024-03-08T00:35:54;101029.09;;;21.03;69.88
80198;BME280;69517;52.030;7.106;2024-03-08T00:38:20;101029.94;;;21.03;69.89
80198;BME280;69517;52.030;7.106;2024-03-08T00:40:48;101030.03;;;21.02;69.95
80198;BME280;69517;52.030;7.106;2024-03-08T00:43:14;101017.72;;;21.02;69.92
80198;BME280;69517;52.030;7.106;2024-03-08T00:45:41;101016.03;;;21.01;70.02
80198;BME280;69517;52.030;7.106;2024-03-08T00:48:08;101020.66;;;20.98;69.99
80198;BME280;69517;52.030;7.106;2024-03-08T00:50:34;101014.56;;;20.97;70.14
80198;BME280;69517;52.030;7.106;2024-03-08T00:53:00;101015.41;;;20.98;70.13
80198;BME280;69517;52.030;7.106;2024-03-08T00:55:27;101020.66;;;20.98;70.01
80198;BME280;69517;52.030;7.106;2024-03-08T00:57:56;101010.22;;;20.96;70.24
80198;BME280;69517;52.030;7.106;2024-03-08T01:00:22;101007.69;;;20.95;70.10
80198;BME280;69517;52.030;7.106;2024-03-08T01:02:49;101012.00;;;20.96;70.05
80198;BME280;69517;52.030;7.106;2024-03-08T01:05:15;100999.06;;;20.93;70.11
80198;BME280;69517;52.030;7.106;2024-03-08T01:07:41;101000.03;;;20.92;70.09
80198;BME280;69517;52.030;7.106;2024-03-08T01:10:08;100999.16;;;20.91;70.06
80198;BME280;69517;52.030;7.106;2024-03-08T01:12:35;100992.31;;;20.89;70.34
80198;BME280;69517;52.030;7.106;2024-03-08T01:15:03;100989.69;;;20.89;70.21
80198;BME280;69517;52.030;7.106;2024-03-08T01:17:29;100988.06;;;20.86;70.26
80198;BME280;69517;52.030;7.106;2024-03-08T01:19:56;100988.91;;;20.87;70.30
80198;BME280;69517;52.030;7.106;2024-03-08T01:22:23;100986.28;;;20.87;70.24
80198;BME280;69517;52.030;7.106;2024-03-08T01:24:49;100978.53;;;20.85;70.14
80198;BME280;69517;52.030;7.106;2024-03-08T01:27:16;100972.44;;;20.85;70.17
80198;BME280;69517;52.030;7.106;2024-03-08T01:29:42;100972.44;;;20.85;70.13
80198;BME280;69517;52.030;7.106;2024-03-08T01:32:10;100970.75;;;20.84;70.15
80198;BME280;69517;52.030;7.106;2024-03-08T01:34:37;100956.94;;;20.80;70.18
80198;BME280;69517;52.030;7.106;2024-03-08T01:37:03;100961.38;;;20.80;70.24
80198;BME280;69517;52.030;7.106;2024-03-08T01:39:30;100958.75;;;20.80;70.25
80198;BME280;69517;52.030;7.106;2024-03-08T01:41:57;100952.63;;;20.79;70.23
80198;BME280;69517;52.030;7.106;2024-03-08T01:44:23;100944.00;;;20.77;70.17
80198;BME280;69517;52.030;7.106;2024-03-08T01:46:50;100936.97;;;20.78;70.20
80198;BME280;69517;52.030;7.106;2024-03-08T01:49:19;100936.19;;;20.76;70.20
80198;BME280;69517;52.030;7.106;2024-03-08T01:51:47;100937.97;;;20.75;70.18
80198;BME280;69517;52.030;7.106;2024-03-08T01:54:14;100939.75;;;20.75;70.15
80198;BME280;69517;52.030;7.106;2024-03-08T01:56:42;100937.13;;;20.75;70.18
80198;BME280;69517;52.030;7.106;2024-03-08T01:59:09;100936.28;;;20.74;70.10
80198;BME280;69517;52.030;7.106;2024-03-08T02:01:35;100934.63;;;20.73;70.12
80198;BME280;69517;52.030;7.106;2024-03-08T02:04:02;100930.22;;;20.74;70.10
80198;BME280;69517;52.030;7.106;2024-03-08T02:06:29;100920.66;;;20.73;70.21
80198;BME280;69517;52.030;7.106;2024-03-08T02:08:56;100929.47;;;20.72;70.12
80198;BME280;69517;52.030;7.106;2024-03-08T02:11:23;100928.63;;;20.71;70.12
80198;BME280;69517;52.030;7.106;2024-03-08T02:13:49;100925.16;;;20.71;70.02
80198;BME280;69517;52.030;7.106;2024-03-08T02:16:19;100926.94;;;20.70;70.03
80198;BME280;69517;52.030;7.106;2024-03-08T02:18:46;100918.19;;;20.70;69.96
80198;BME280;69517;52.030;7.106;2024-03-08T02:21:14;100919.97;;;20.69;70.11
80198;BME280;69517;52.030;7.106;2024-03-08T02:23:43;100920.81;;;20.70;70.13
80198;BME280;69517;52.030;7.106;2024-03-08T02:26:09;100923.47;;;20.70;70.03
80198;BME280;69517;52.030;7.106;2024-03-08T02:28:36;100916.50;;;20.69;69.99
80198;BME280;69517;52.030;7.106;2024-03-08T02:31:03;100918.41;;;20.67;70.05
80198;BME280;69517;52.030;7.106;2024-03-08T02:33:34;100921.88;;;20.67;70.01
80198;BME280;69517;52.030;7.106;2024-03-08T02:36:00;100912.41;;;20.64;70.03
80198;BME280;69517;52.030;7.106;2024-03-08T02:38:29;100909.78;;;20.64;70.11
80198;BME280;69517;52.030;7.106;2024-03-08T02:40:55;100914.09;;;20.65;69.96
80198;BME280;69517;52.030;7.106;2024-03-08T02:43:22;100908.94;;;20.64;70.03
80198;BME280;69517;52.030;7.106;2024-03-08T02:45:49;100909.84;;;20.63;70.02
80198;BME280;69517;52.030;7.106;2024-03-08T02:48:17;100901.13;;;20.62;69.96
80198;BME280;69517;52.030;7.106;2024-03-08T02:50:44;100904.69;;;20.61;70.11
80198;BME280;69517;52.030;7.106;2024-03-08T02:53:11;100891.56;;;20.61;69.94
80198;BME280;69517;52.030;7.106;2024-03-08T02:55:39;100893.38;;;20.61;70.03
80198;BME280;69517;52.030;7.106;2024-03-08T02:58:06;100896.09;;;20.59;69.98
80198;BME280;69517;52.030;7.106;2024-03-08T03:00:35;100896.09;;;20.59;70.09
80198;BME280;69517;52.030;7.106;2024-03-08T03:03:01;100884.72;;;20.59;70.08
80198;BME280;69517;52.030;7.106;2024-03-08T03:05:28;100883.88;;;20.58;69.91
80198;BME280;69517;52.030;7.106;2024-03-08T03:07:55;100880.41;;;20.58;69.94
80198;BME280;69517;52.030;7.106;2024-03-08T03:10:23;100879.47;;;20.59;69.97
80198;BME280;69517;52.030;7.106;2024-03-08T03:12:51;100878.72;;;20.57;70.01
80198;BME280;69517;52.030;7.106;2024-03-08T03:15:17;100876.09;;;20.57;69.90
80198;BME280;69517;52.030;7.106;2024-03-08T03:17:45;100874.31;;;20.57;69.91
80198;BME280;69517;52.030;7.106;2024-03-08T03:20:12;100871.69;;;20.57;69.87
80198;BME280;69517;52.030;7.106;2024-03-08T03:22:39;100875.38;;;20.55;70.01
80198;BME280;69517;52.030;7.106;2024-03-08T03:25:06;100863.91;;;20.56;70.06
80198;BME280;69517;52.030;7.106;2024-03-08T03:27:32;100870.00;;;20.56;69.92
80198;BME280;69517;52.030;7.106;2024-03-08T03:30:00;100857.78;;;20.55;70.00
80198;BME280;69517;52.030;7.106;2024-03-08T03:32:45;100862.03;;;20.58;69.79
80198;BME280;69517;52.030;7.106;2024-03-08T03:35:13;100847.97;;;20.59;69.90
80198;BME280;69517;52.030;7.106;2024-03-08T03:37:39;100854.78;;;20.61;69.92
80198;BME280;69517;52.030;7.106;2024-03-08T03:40:08;100851.22;;;20.62;69.88
80198;BME280;69517;52.030;7.106;2024-03-08T03:42:34;100855.53;;;20.63;69.75
80198;BME280;69517;52.030;7.106;2024-03-08T03:45:04;100845.78;;;20.65;69.79
80198;BME280;69517;52.030;7.106;2024-03-08T03:47:30;100857.78;;;20.70;69.53
80198;BME280;69517;52.030;7.106;2024-03-08T03:49:57;100853.28;;;20.72;69.50
80198;BME280;69517;52.030;7.106;2024-03-08T03:52:26;100840.03;;;20.73;69.36
80198;BME280;69517;52.030;7.106;2024-03-08T03:54:53;100843.41;;;20.75;69.31
80198;BME280;69517;52.030;7.106;2024-03-08T03:57:19;100845.94;;;20.77;69.27
80198;BME280;69517;52.030;7.106;2024-03-08T03:59:48;100846.69;;;20.79;69.22
80198;BME280;69517;52.030;7.106;2024-03-08T04:02:16;100834.25;;;20.81;69.20
80198;BME280;69517;52.030;7.106;2024-03-08T04:04:45;100844.69;;;20.82;69.14
80198;BME280;69517;52.030;7.106;2024-03-08T04:07:11;100840.28;;;20.83;69.36
80198;BME280;69517;52.030;7.106;2024-03-08T04:09:37;100838.50;;;20.83;69.33
80198;BME280;69517;52.030;7.106;2024-03-08T04:12:04;100835.66;;;20.86;69.32
80198;BME280;69517;52.030;7.106;2024-03-08T04:14:30;100829.59;;;20.86;69.36
80198;BME280;69517;52.030;7.106;2024-03-08T04:16:57;100833.88;;;20.87;69.21
80198;BME280;69517;52.030;7.106;2024-03-08T04:19:24;100827.69;;;20.88;69.35
80198;BME280;69517;52.030;7.106;2024-03-08T04:21:51;100824.94;;;20.89;69.29
80198;BME280;69517;52.030;7.106;2024-03-08T04:24:18;100823.06;;;20.91;69.34
80198;BME280;69517;52.030;7.106;2024-03-08T04:26:45;100817.81;;;20.91;69.32
80198;BME280;69517;52.030;7.106;2024-03-08T04:29:12;100820.31;;;20.93;69.35
80198;BME280;69517;52.030;7.106;2024-03-08T04:31:39;100817.59;;;20.94;69.38
80198;BME280;69517;52.030;7.106;2024-03-08T04:34:06;100820.22;;;20.94;69.35
80198;BME280;69517;52.030;7.106;2024-03-08T04:36:34;100822.78;;;20.96;69.39
80198;BME280;69517;52.030;7.106;2024-03-08T04:39:00;100819.19;;;20.97;69.36
80198;BME280;69517;52.030;7.106;2024-03-08T04:41:27;100811.31;;;20.97;69.35
80198;BME280;69517;52.030;7.106;2024-03-08T04:43:55;100815.63;;;20.98;69.41
80198;BME280;69517;52.030;7.106;2024-03-08T04:46:22;100819.06;;;20.98;69.40
80198;BME280;69517;52.030;7.106;2024-03-08T04:48:49;100810.25;;;20.99;69.24
80198;BME280;69517;52.030;7.106;2024-03-08T04:51:15;100809.31;;;21.00;69.35
80198;BME280;69517;52.030;7.106;2024-03-08T04:53:43;100804.91;;;21.01;69.30
80198;BME280;69517;52.030;7.106;2024-03-08T04:56:10;100802.28;;;21.01;69.34
80198;BME280;69517;52.030;7.106;2024-03-08T04:58:36;100802.28;;;21.01;69.26
80198;BME280;69517;52.030;7.106;2024-03-08T05:01:03;100803.97;;;21.02;69.27
80198;BME280;69517;52.030;7.106;2024-03-08T05:03:29;100806.50;;;21.03;69.28
80198;BME280;69517;52.030;7.106;2024-03-08T05:05:56;100801.25;;;21.03;69.35
80198;BME280;69517;52.030;7.106;2024-03-08T05:08:22;100802.09;;;21.04;69.04
80198;BME280;69517;52.030;7.106;2024-03-08T05:10:50;100798.63;;;21.03;69.19
80198;BME280;69517;52.030;7.106;2024-03-08T05:13:16;100791.56;;;21.04;69.06
80198;BME280;69517;52.030;7.106;2024-03-08T05:15:43;100797.63;;;21.04;69.11
80198;BME280;69517;52.030;7.106;2024-03-08T05:18:10;100795.00;;;21.04;69.24
80198;BME280;69517;52.030;7.106;2024-03-08T05:20:39;100792.28;;;21.06;69.12
80198;BME280;69517;52.030;7.106;2024-03-08T05:23:06;100787.03;;;21.06;69.13
80198;BME280;69517;52.030;7.106;2024-03-08T05:25:33;100775.56;;;21.07;69.22
80198;BME280;69517;52.030;7.106;2024-03-08T05:28:01;100786.09;;;21.07;69.17
80198;BME280;69517;52.030;7.106;2024-03-08T05:30:28;100786.09;;;21.07;69.20
80198;BME280;69517;52.030;7.106;2024-03-08T05:32:54;100783.47;;;21.07;69.18
80198;BME280;69517;52.030;7.106;2024-03-08T05:35:22;100786.09;;;21.07;69.16
80198;BME280;69517;52.030;7.106;2024-03-08T05:37:49;100783.47;;;21.07;69.16
80198;BME280;69517;52.030;7.106;2024-03-08T05:40:16;100778.22;;;21.07;69.18
80198;BME280;69517;52.030;7.106;2024-03-08T05:42:42;100779.91;;;21.08;69.15
80198;BME280;69517;52.030;7.106;2024-03-08T05:45:10;100789.56;;;21.08;69.19
80198;BME280;69517;52.030;7.106;2024-03-08T05:47:36;100786.00;;;21.09;69.20
80198;BME280;69517;52.030;7.106;2024-03-08T05:50:05;100781.59;;;21.09;68.99
80198;BME280;69517;52.030;7.106;2024-03-08T05:52:33;100787.78;;;21.08;69.00
80198;BME280;69517;52.030;7.106;2024-03-08T05:54:59;100778.97;;;21.09;69.12
80198;BME280;69517;52.030;7.106;2024-03-08T05:57:25;100777.25;;;21.08;69.04
80198;BME280;69517;52.030;7.106;2024-03-08T05:59:52;100780.66;;;21.10;69.14
80198;BME280;69517;52.030;7.106;2024-03-08T06:02:20;100772.84;;;21.09;69.14
80198;BME280;69517;52.030;7.106;2024-03-08T06:04:53;100774.53;;;21.10;69.06
80198;BME280;69517;52.030;7.106;2024-03-08T06:07:20;100776.19;;;21.11;68.98
80198;BME280;69517;52.030;7.106;2024-03-08T06:09:46;100779.81;;;21.10;69.11
80198;BME280;69517;52.030;7.106;2024-03-08T06:12:14;100779.81;;;21.10;68.81
80198;BME280;69517;52.030;7.106;2024-03-08T06:14:43;100772.19;;;21.05;68.43
80198;BME280;69517;52.030;7.106;2024-03-08T06:17:10;100775.56;;;21.07;68.74
80198;BME280;69517;52.030;7.106;2024-03-08T06:19:37;100774.81;;;21.05;69.09
80198;BME280;69517;52.030;7.106;2024-03-08T06:22:04;100768.63;;;21.06;69.01
80198;BME280;69517;52.030;7.106;2024-03-08T06:24:31;100762.44;;;21.07;68.85
80198;BME280;69517;52.030;7.106;2024-03-08T06:26:57;100768.53;;;21.08;68.79
80198;BME280;69517;52.030;7.106;2024-03-08T06:29:24;100764.22;;;21.06;68.72
80198;BME280;69517;52.030;7.106;2024-03-08T06:31:51;100769.47;;;21.06;68.73
80198;BME280;69517;52.030;7.106;2024-03-08T06:34:18;100764.13;;;21.08;68.68
80198;BME280;69517;52.030;7.106;2024-03-08T06:36:46;100771.78;;;21.11;68.61
80198;BME280;69517;52.030;7.106;2024-03-08T06:39:12;100770.84;;;21.12;68.48
80198;BME280;69517;52.030;7.106;2024-03-08T06:41:39;100768.22;;;21.12;68.76
80198;BME280;69517;52.030;7.106;2024-03-08T06:44:05;100764.06;;;21.22;68.50
80198;BME280;69517;52.030;7.106;2024-03-08T06:46:33;100760.91;;;21.30;68.31
80198;BME280;69517;52.030;7.106;2024-03-08T06:48:59;100762.06;;;21.38;68.00
80198;BME280;69517;52.030;7.106;2024-03-08T06:51:26;100764.28;;;21.44;67.70
80198;BME280;69517;52.030;7.106;2024-03-08T06:53:54;100764.06;;;21.48;67.60
80198;BME280;69517;52.030;7.106;2024-03-08T06:56:20;100768.28;;;21.50;67.59
80198;BME280;69517;52.030;7.106;2024-03-08T06:58:47;100770.59;;;21.55;67.46
80198;BME280;69517;52.030;7.106;2024-03-08T07:01:14;100767.75;;;21.58;67.57
80198;BME280;69517;52.030;7.106;2024-03-08T07:03:41;100762.25;;;21.61;67.47
80198;BME280;69517;52.030;7.106;2024-03-08T07:06:09;100758.78;;;21.60;67.61
80198;BME280;69517;52.030;7.106;2024-03-08T07:08:35;100760.47;;;21.61;67.59
80198;BME280;69517;52.030;7.106;2024-03-08T07:11:03;100764.06;;;21.60;67.65
80198;BME280;69517;52.030;7.106;2024-03-08T07:13:29;100762.25;;;21.61;67.36
80198;BME280;69517;52.030;7.106;2024-03-08T07:15:56;100764.69;;;21.64;67.13
80198;BME280;69517;52.030;7.106;2024-03-08T07:18:25;100753.94;;;21.67;67.20
80198;BME280;69517;52.030;7.106;2024-03-08T07:20:52;100762.34;;;21.72;67.00
80198;BME280;69517;52.030;7.106;2024-03-08T07:23:19;100761.22;;;21.76;67.10
80198;BME280;69517;52.030;7.106;2024-03-08T07:25:59;100765.28;;;21.80;67.22
80198;BME280;69517;52.030;7.106;2024-03-08T07:28:27;100750.97;;;21.71;67.43
80198;BME280;69517;52.030;7.106;2024-03-08T07:30:55;100763.31;;;21.71;67.25
80198;BME280;69517;52.030;7.106;2024-03-08T07:33:33;100754.34;;;21.73;67.15
80198;BME280;69517;52.030;7.106;2024-03-08T07:36:00;100755.00;;;21.77;67.17
80198;BME280;69517;52.030;7.106;2024-03-08T07:38:26;100746.97;;;21.78;67.10
80198;BME280;69517;52.030;7.106;2024-03-08T07:40:52;100751.19;;;21.81;67.20
80198;BME280;69517;52.030;7.106;2024-03-08T07:43:19;100746.03;;;21.79;67.03
80198;BME280;69517;52.030;7.106;2024-03-08T07:45:46;100743.41;;;21.79;67.07
80198;BME280;69517;52.030;7.106;2024-03-08T07:48:13;100746.13;;;21.78;67.26
80198;BME280;69517;52.030;7.106;2024-03-08T07:50:39;100743.63;;;21.76;67.24
80198;BME280;69517;52.030;7.106;2024-03-08T07:53:06;100739.31;;;21.75;67.18
80198;BME280;69517;52.030;7.106;2024-03-08T07:55:32;100742.03;;;21.74;67.17
80198;BME280;69517;52.030;7.106;2024-03-08T07:58:00;100735.19;;;21.71;67.25
80198;BME280;69517;52.030;7.106;2024-03-08T08:00:26;100737.97;;;21.57;64.66
80198;BME280;69517;52.030;7.106;2024-03-08T08:02:54;100739.50;;;19.75;53.25
80198;BME280;69517;52.030;7.106;2024-03-08T08:05:21;100744.00;;;19.00;51.84
80198;BME280;69517;52.030;7.106;2024-03-08T08:07:47;100734.53;;;18.22;49.77
80198;BME280;69517;52.030;7.106;2024-03-08T08:10:14;100741.94;;;18.14;47.00
80198;BME280;69517;52.030;7.106;2024-03-08T08:12:43;100741.34;;;17.94;46.46
80198;BME280;69517;52.030;7.106;2024-03-08T08:15:10;100742.63;;;17.87;46.31
80198;BME280;69517;52.030;7.106;2024-03-08T08:17:36;100735.69;;;17.53;45.23
80198;BME280;69517;52.030;7.106;2024-03-08T08:20:05;100729.69;;;17.51;44.95
80198;BME280;69517;52.030;7.106;2024-03-08T08:22:32;100726.66;;;18.38;47.91
80198;BME280;69517;52.030;7.106;2024-03-08T08:24:58;100732.84;;;19.27;51.77
80198;BME280;69517;52.030;7.106;2024-03-08T08:27:25;100717.09;;;19.83;51.82
80198;BME280;69517;52.030;7.106;2024-03-08T08:29:52;100717.84;;;20.26;51.59
80198;BME280;69517;52.030;7.106;2024-03-08T08:32:18;100708.66;;;20.60;51.44
80198;BME280;69517;52.030;7.106;2024-03-08T08:34:45;100706.25;;;20.83;51.37
80198;BME280;69517;52.030;7.106;2024-03-08T08:37:13;100710.50;;;20.98;51.50
80198;BME280;69517;52.030;7.106;2024-03-08T08:39:39;100703.97;;;21.03;51.92
80198;BME280;69517;52.030;7.106;2024-03-08T08:42:05;100700.63;;;21.14;52.46
80198;BME280;69517;52.030;7.106;2024-03-08T08:44:34;100699.91;;;21.25;52.68
80198;BME280;69517;52.030;7.106;2024-03-08T08:47:00;100698.44;;;21.33;52.87
80198;BME280;69517;52.030;7.106;2024-03-08T08:49:28;100692.94;;;21.36;53.27
80198;BME280;69517;52.030;7.106;2024-03-08T08:51:55;100698.53;;;21.44;53.59
80198;BME280;69517;52.030;7.106;2024-03-08T08:54:24;100691.25;;;21.35;54.20
80198;BME280;69517;52.030;7.106;2024-03-08T08:56:52;100684.72;;;21.41;54.69
80198;BME280;69517;52.030;7.106;2024-03-08T08:59:19;100684.53;;;21.44;55.36
80198;BME280;69517;52.030;7.106;2024-03-08T09:01:45;100681.38;;;21.52;55.71
80198;BME280;69517;52.030;7.106;2024-03-08T09:04:12;100680.94;;;21.58;56.17
80198;BME280;69517;52.030;7.106;2024-03-08T09:06:38;100674.28;;;21.65;56.22
80198;BME280;69517;52.030;7.106;2024-03-08T09:09:06;100655.63;;;21.68;56.48
80198;BME280;69517;52.030;7.106;2024-03-08T09:11:37;100663.44;;;21.69;56.61
80198;BME280;69517;52.030;7.106;2024-03-08T09:14:06;100663.44;;;21.69;56.58
80198;BME280;69517;52.030;7.106;2024-03-08T09:16:32;100659.97;;;21.69;56.88
80198;BME280;69517;52.030;7.106;2024-03-08T09:18:59;100652.91;;;21.69;57.22
80198;BME280;69517;52.030;7.106;2024-03-08T09:21:25;100657.94;;;21.72;57.30
80198;BME280;69517;52.030;7.106;2024-03-08T09:23:52;100648.06;;;21.76;57.35
80198;BME280;69517;52.030;7.106;2024-03-08T09:26:18;100646.97;;;21.78;57.50
80198;BME280;69517;52.030;7.106;2024-03-08T09:28:46;100645.19;;;21.79;57.78
80198;BME280;69517;52.030;7.106;2024-03-08T09:31:12;100641.59;;;21.80;57.85
80198;BME280;69517;52.030;7.106;2024-03-08T09:33:40;100629.19;;;21.82;57.96
80198;BME280;69517;52.030;7.106;2024-03-08T09:36:08;100635.41;;;21.81;58.18
80198;BME280;69517;52.030;7.106;2024-03-08T09:38:34;100629.06;;;21.83;58.19
80198;BME280;69517;52.030;7.106;2024-03-08T09:41:00;100633.25;;;21.86;58.37
80198;BME280;69517;52.030;7.106;2024-03-08T09:43:29;100627.16;;;21.85;58.38
80198;BME280;69517;52.030;7.106;2024-03-08T09:45:56;100627.41;;;21.82;58.69
80198;BME280;69517;52.030;7.106;2024-03-08T09:48:23;100616.63;;;21.85;58.70
80198;BME280;69517;52.030;7.106;2024-03-08T09:50:51;100607.19;;;21.83;59.02
80198;BME280;69517;52.030;7.106;2024-03-08T09:53:20;100614.25;;;21.82;59.17
80198;BME280;69517;52.030;7.106;2024-03-08T09:55:47;100607.19;;;21.83;59.28
80198;BME280;69517;52.030;7.106;2024-03-08T09:58:15;100592.44;;;21.80;59.44
80198;BME280;69517;52.030;7.106;2024-03-08T10:01:15;100587.53;;;21.76;59.85
80198;BME280;69517;52.030;7.106;2024-03-08T10:03:41;100592.00;;;21.63;59.79
80198;BME280;69517;52.030;7.106;2024-03-08T10:06:08;100582.41;;;21.62;59.82
80198;BME280;69517;52.030;7.106;2024-03-08T10:08:35;100577.66;;;21.67;59.52
80198;BME280;69517;52.030;7.106;2024-03-08T10:11:01;100571.44;;;21.68;59.50
80198;BME280;69517;52.030;7.106;2024-03-08T10:13:28;100578.28;;;21.70;59.58
80198;BME280;69517;52.030;7.106;2024-03-08T10:15:55;100569.56;;;21.70;59.70
80198;BME280;69517;52.030;7.106;2024-03-08T10:18:23;100570.41;;;21.70;59.88
80198;BME280;69517;52.030;7.106;2024-03-08T10:21:01;100571.34;;;21.69;59.85
80198;BME280;69517;52.030;7.106;2024-03-08T10:23:30;100569.66;;;21.68;60.04
80198;BME280;69517;52.030;7.106;2024-03-08T10:25:56;100556.50;;;21.68;60.07
80198;BME280;69517;52.030;7.106;2024-03-08T10:28:23;100559.13;;;21.68;60.18
80198;BME280;69517;52.030;7.106;2024-03-08T10:30:50;100561.03;;;21.66;60.40
80198;BME280;69517;52.030;7.106;2024-03-08T10:33:16;100544.53;;;21.64;60.38
80198;BME280;69517;52.030;7.106;2024-03-08T10:35:44;100555.06;;;21.64;60.48
80198;BME280;69517;52.030;7.106;2024-03-08T10:38:10;100542.84;;;21.63;60.56
80198;BME280;69517;52.030;7.106;2024-03-08T10:40:41;100537.59;;;21.63;60.65
80198;BME280;69517;52.030;7.106;2024-03-08T10:43:08;100541.16;;;21.62;60.81
80198;BME280;69517;52.030;7.106;2024-03-08T10:45:41;100535.06;;;21.62;60.89
80198;BME280;69517;52.030;7.106;2024-03-08T10:48:10;100523.69;;;21.61;60.86
80198;BME280;69517;52.030;7.106;2024-03-08T10:50:44;100523.78;;;21.60;60.97
80198;BME280;69517;52.030;7.106;2024-03-08T10:53:11;100519.50;;;21.59;61.04
80198;BME280;69517;52.030;7.106;2024-03-08T10:55:39;100515.19;;;21.58;61.10
80198;BME280;69517;52.030;7.106;2024-03-08T10:58:06;100527.50;;;21.57;61.23
80198;BME280;69517;52.030;7.106;2024-03-08T11:00:33;100530.97;;;21.58;61.09
80198;BME280;69517;52.030;7.106;2024-03-08T11:03:00;100516.97;;;21.57;61.27
80198;BME280;69517;52.030;7.106;2024-03-08T11:05:32;100517.09;;;21.56;61.42
80198;BME280;69517;52.030;7.106;2024-03-08T11:08:05;100515.41;;;21.55;61.49
80198;BME280;69517;52.030;7.106;2024-03-08T11:10:31;100513.72;;;21.54;61.56
80198;BME280;69517;52.030;7.106;2024-03-08T11:12:58;100516.34;;;21.54;61.64
80198;BME280;69517;52.030;7.106;2024-03-08T11:15:25;100512.88;;;21.53;61.58
80198;BME280;69517;52.030;7.106;2024-03-08T11:17:51;100505.00;;;21.53;61.62
80198;BME280;69517;52.030;7.106;2024-03-08T11:20:23;100499.88;;;21.52;61.65
80198;BME280;69517;52.030;7.106;2024-03-08T11:22:50;100496.28;;;21.53;61.77
80198;BME280;69517;52.030;7.106;2024-03-08T11:25:34;100488.59;;;21.50;61.82
80198;BME280;69517;52.030;7.106;2024-03-08T11:28:07;100493.47;;;21.43;61.73
80198;BME280;69517;52.030;7.106;2024-03-08T11:30:34;100496.94;;;21.43;61.59
80198;BME280;69517;52.030;7.106;2024-03-08T11:33:00;100477.59;;;21.44;61.58
80198;BME280;69517;52.030;7.106;2024-03-08T11:35:28;100466.72;;;21.49;61.61
80198;BME280;69517;52.030;7.106;2024-03-08T11:37:54;100462.28;;;21.50;61.65
80198;BME280;69517;52.030;7.106;2024-03-08T11:40:21;100461.34;;;21.51;61.61
80198;BME280;69517;52.030;7.106;2024-03-08T11:42:49;100457.88;;;21.50;61.66
80198;BME280;69517;52.030;7.106;2024-03-08T11:45:16;100456.81;;;21.53;61.79
80198;BME280;69517;52.030;7.106;2024-03-08T11:47:43;100453.22;;;21.54;61.70
80198;BME280;69517;52.030;7.106;2024-03-08T11:50:11;100447.13;;;21.53;61.78
80198;BME280;69517;52.030;7.106;2024-03-08T11:52:37;100439.22;;;21.53;61.87
80198;BME280;69517;52.030;7.106;2024-03-08T11:55:04;100440.06;;;21.54;61.92
80198;BME280;69517;52.030;7.106;2024-03-08T11:57:31;100435.78;;;21.53;62.12
80198;BME280;69517;52.030;7.106;2024-03-08T11:59:59;100429.53;;;21.54;62.05
80198;BME280;69517;52.030;7.106;2024-03-08T12:05:01;100419.03;;;21.54;62.36
80198;BME280;69517;52.030;7.106;2024-03-08T12:07:28;100426.22;;;21.52;62.41
80198;BME280;69517;52.030;7.106;2024-03-08T12:12:42;100400.84;;;21.51;62.33
80198;BME280;69517;52.030;7.106;2024-03-08T12:15:10;100397.28;;;21.52;62.21
80198;BME280;69517;52.030;7.106;2024-03-08T12:17:37;100387.69;;;21.51;62.04
80198;BME280;69517;52.030;7.106;2024-03-08T12:20:11;100399.16;;;21.50;62.02
80198;BME280;69517;52.030;7.106;2024-03-08T12:22:40;100393.91;;;21.50;61.88
80198;BME280;69517;52.030;7.106;2024-03-08T12:25:07;100387.69;;;21.51;61.79
80198;BME280;69517;52.030;7.106;2024-03-08T12:27:35;100378.13;;;21.50;61.95
80198;BME280;69517;52.030;7.106;2024-03-08T12:30:16;100367.38;;;21.53;61.98
80198;BME280;69517;52.030;7.106;2024-03-08T12:32:46;100372.41;;;21.56;62.23
80198;BME280;69517;52.030;7.106;2024-03-08T12:35:12;100360.19;;;21.55;62.63
80198;BME280;69517;52.030;7.106;2024-03-08T12:37:39;100363.78;;;21.54;62.67
80198;BME280;69517;52.030;7.106;2024-03-08T12:40:07;100347.16;;;21.53;62.54
80198;BME280;69517;52.030;7.106;2024-03-08T12:42:34;100343.47;;;21.56;62.49
80198;BME280;69517;52.030;7.106;2024-03-08T12:45:01;100350.53;;;21.55;62.50
80198;BME280;69517;52.030;7.106;2024-03-08T12:47:29;100339.41;;;21.52;62.68
80198;BME280;69517;52.030;7.106;2024-03-08T12:49:56;100338.66;;;21.50;62.47
80198;BME280;69517;52.030;7.106;2024-03-08T12:52:23;100335.09;;;21.51;62.48
80198;BME280;69517;52.030;7.106;2024-03-08T12:54:49;100332.22;;;21.54;62.38
80198;BME280;69517;52.030;7.106;2024-03-08T12:57:16;100329.38;;;21.57;62.42